Time;durP1;ratioP1;P1;durP2;ratioP2;P2;SDS_P1;SDS_P2;PMS_P1;PMS_P2;Temp;Humidity;BMP_temperature;BMP_pressure;BME280_temperature;BME280_humidity;BME280_pressure;Samples;Min_cycle;Max_cycle;Signal;HPM_P1;HPM_P2
2023/01/03 00:01:45;;;;;;;3.95;2.77;;;;;;;9.12;70.62;101306.73;1690611;83;21838;-90
2023/01/03 00:04:11;;;;;;;7.20;4.50;;;;;;;9.12;70.61;101294.91;1696123;83;21664;-82
2023/01/03 00:06:47;;;;;;;5.95;2.20;;;;;;;9.12;70.56;101309.74;1694262;83;21548;-83
2023/01/03 00:09:17;;;;;;;3.00;1.60;;;;;;;9.11;70.59;101310.17;1695439;83;21094;-83
2023/01/03 00:14:34;;;;;;;1.30;1.20;;;;;;;9.08;70.64;101294.70;1698064;83;21768;-93
2023/01/03 00:17:18;;;;;;;2.10;1.47;;;;;;;8.99;70.60;101276.88;1705877;83;21105;-94
2023/01/03 00:20:04;;;;;;;;;;;;;;;9.05;70.62;101289.36;1705247;83;21247;-93
2023/01/03 00:22:33;;;;;;;20.82;12.45;;;;;;;9.04;70.67;101291.48;1694489;84;20996;-92
2023/01/03 00:25:02;;;;;;;16.87;10.10;;;;;;;9.05;70.78;101290.67;1696624;83;21047;-94
2023/01/03 00:27:31;;;;;;;15.72;8.93;;;;;;;9.04;70.70;101289.75;1698274;83;21825;-93
2023/01/03 00:29:58;;;;;;;6.92;3.90;;;;;;;9.03;70.76;101301.11;1681887;85;21038;-92
2023/01/03 00:32:37;;;;;;;3.98;1.90;;;;;;;9.04;70.73;101298.05;1691799;83;21714;-93
2023/01/03 00:35:07;;;;;;;4.35;2.67;;;;;;;9.03;70.74;101305.05;1698170;84;21069;-84
2023/01/03 00:37:34;;;;;;;5.58;1.95;;;;;;;9.04;70.83;101312.07;1693861;83;21094;-84
2023/01/03 00:40:02;;;;;;;2.00;1.00;;;;;;;9.06;70.92;101322.21;1685077;83;21732;-83
2023/01/03 00:42:28;;;;;;;2.30;1.10;;;;;;;9.08;70.89;101326.22;1695325;83;21149;-83
2023/01/03 00:44:55;;;;;;;1.30;0.88;;;;;;;9.07;70.90;101331.90;1696661;83;21074;-83
2023/01/03 00:47:24;;;;;;;3.00;1.20;;;;;;;9.07;70.87;101335.84;1693131;84;21066;-83
2023/01/03 00:49:51;;;;;;;2.42;1.22;;;;;;;9.05;70.92;101338.83;1689986;83;21053;-83
2023/01/03 00:52:18;;;;;;;1.32;0.80;;;;;;;9.08;70.97;101347.23;1703089;83;21774;-83
2023/01/03 00:54:45;;;;;;;1.57;0.90;;;;;;;9.08;70.91;101336.30;1695387;83;21074;-83
2023/01/03 00:57:12;;;;;;;1.67;0.82;;;;;;;9.05;70.80;101337.51;1687699;83;21145;-83
2023/01/03 00:59:38;;;;;;;1.92;1.00;;;;;;;9.00;70.72;101338.16;1695152;83;21042;-83
2023/01/03 01:02:05;;;;;;;1.82;0.75;;;;;;;8.88;70.57;101345.13;1690970;83;21107;-83
2023/01/03 01:04:32;;;;;;;1.30;0.95;;;;;;;8.76;70.67;101342.86;1692717;83;22424;-83
2023/01/03 01:07:01;;;;;;;1.50;0.80;;;;;;;8.67;70.87;101355.59;1693566;83;21249;-83
2023/01/03 01:09:31;;;;;;;1.82;0.90;;;;;;;8.64;71.06;101354.17;1661299;83;21082;-83
2023/01/03 01:11:58;;;;;;;1.72;0.90;;;;;;;8.60;71.15;101354.45;1675653;84;21070;-83
2023/01/03 01:14:26;;;;;;;1.62;0.90;;;;;;;8.56;71.22;101362.61;1676534;85;21046;-83
2023/01/03 01:16:59;;;;;;;2.62;1.00;;;;;;;8.54;71.36;101355.52;1656607;85;21761;-83
2023/01/03 01:19:29;;;;;;;2.70;1.10;;;;;;;8.56;71.51;101354.73;1686889;84;21070;-84
2023/01/03 01:21:56;;;;;;;3.22;1.00;;;;;;;8.57;71.56;101356.94;1687174;84;21074;-83
2023/01/03 01:24:24;;;;;;;2.05;0.90;;;;;;;8.52;71.55;101358.45;1687754;84;21191;-84
2023/01/03 01:26:52;;;;;;;3.52;1.20;;;;;;;8.48;71.57;101358.73;1642262;86;21638;-85
2023/01/03 01:29:19;;;;;;;5.45;1.30;;;;;;;8.41;71.61;101359.69;1658465;85;21752;-83
2023/01/03 01:31:46;;;;;;;2.40;1.10;;;;;;;8.37;71.83;101365.21;1661080;85;21069;-84
2023/01/03 01:34:13;;;;;;;4.17;1.37;;;;;;;8.30;71.89;101361.44;1674774;85;21542;-84
2023/01/03 01:36:40;;;;;;;2.58;1.27;;;;;;;8.22;72.00;101363.23;1675418;85;21050;-85
2023/01/03 01:39:19;;;;;;;6.35;1.75;;;;;;;8.16;72.17;101365.17;1654189;85;21078;-85
2023/01/03 01:44:51;;;;;;;3.58;1.12;;;;;;;8.01;72.31;101371.93;1673451;84;21085;-81
2023/01/03 01:47:42;;;;;;;3.45;1.30;;;;;;;7.91;72.41;101367.11;1677276;85;21123;-82
2023/01/03 01:50:23;;;;;;;3.90;1.42;;;;;;;7.82;72.54;101370.20;1658975;85;21057;-93
2023/01/03 01:53:06;;;;;;;2.67;1.27;;;;;;;7.76;72.75;101366.88;1687402;84;21052;-92
2023/01/03 01:55:38;;;;;;;4.05;1.25;;;;;;;7.71;72.90;101370.11;1697043;83;21203;-92
2023/01/03 01:58:08;;;;;;;6.12;1.72;;;;;;;7.65;72.96;101379.89;1658965;85;21074;-93
2023/01/03 02:00:34;;;;;;;2.55;1.00;;;;;;;7.60;73.05;101374.84;1650166;86;21098;-93
2023/01/03 02:03:02;;;;;;;1.95;1.17;;;;;;;7.56;73.18;101374.22;1641281;86;21548;-93
2023/01/03 02:05:37;;;;;;;2.95;1.20;;;;;;;7.54;73.28;101375.87;1658103;85;21061;-90
2023/01/03 02:08:07;;;;;;;7.80;1.82;;;;;;;7.52;73.50;101387.58;1679696;83;22462;-90
2023/01/03 02:10:50;;;;;;;4.35;1.32;;;;;;;7.58;73.63;101389.20;1685821;84;21074;-91
2023/01/03 02:13:35;;;;;;;6.03;1.50;;;;;;;7.65;73.73;101390.38;1699815;84;21074;-90
2023/01/03 02:16:47;;;;;;;3.75;1.30;;;;;;;7.68;73.64;101386.60;1690883;84;21357;-83
2023/01/03 02:19:51;;;;;;;7.95;2.08;;;;;;;7.65;73.41;101394.30;1701333;83;20972;-82
2023/01/03 02:22:46;;;;;;;4.87;1.60;;;;;;;7.62;73.31;101393.27;1699528;83;21772;-82
2023/01/03 02:25:50;;;;;;;4.72;1.95;;;;;;;7.53;73.25;101399.87;1680860;84;21560;-91
2023/01/03 02:29:00;;;;;;;4.45;2.22;;;;;;;7.46;73.32;101402.13;1685416;84;21054;-84
2023/01/03 02:32:01;;;;;;;7.00;2.30;;;;;;;7.37;73.37;101406.50;1693753;84;21087;-84
2023/01/03 02:35:01;;;;;;;4.10;1.65;;;;;;;7.26;73.49;101411.20;1686749;84;21440;-84
2023/01/03 02:38:10;;;;;;;3.08;1.77;;;;;;;7.19;73.68;101413.95;1671762;83;21745;-82
2023/01/03 02:40:45;;;;;;;4.62;1.90;;;;;;;7.12;73.80;101416.20;1653368;86;21026;-91
2023/01/03 02:43:49;;;;;;;3.17;1.25;;;;;;;7.07;74.06;101425.11;1669237;85;21067;-91
2023/01/03 02:46:38;;;;;;;4.70;1.37;;;;;;;7.09;74.29;101430.01;1654988;85;21670;-91
2023/01/03 02:49:25;;;;;;;6.72;1.67;;;;;;;7.10;74.34;101433.55;1647750;86;21061;-82
2023/01/03 02:52:00;;;;;;;5.95;1.80;;;;;;;7.08;74.23;101433.89;1677787;84;21785;-91
2023/01/03 02:54:57;;;;;;;2.92;1.10;;;;;;;7.04;73.94;101426.29;1677804;84;21098;-91
2023/01/03 02:57:46;;;;;;;7.37;1.52;;;;;;;7.04;73.80;101439.77;1678248;84;21567;-82
2023/01/03 03:00:16;;;;;;;5.22;1.40;;;;;;;7.01;73.55;101421.77;1693782;83;21134;-83
2023/01/03 03:02:50;;;;;;;5.87;1.67;;;;;;;6.98;73.40;101440.35;1697198;83;21186;-83
2023/01/03 03:05:29;;;;;;;6.15;1.70;;;;;;;6.94;73.29;101434.06;1685042;83;21583;-83
2023/01/03 03:07:57;;;;;;;5.70;1.62;;;;;;;6.90;73.23;101439.08;1673350;85;21113;-84
2023/01/03 03:13:21;;;;;;;6.03;1.80;;;;;;;6.79;73.14;101428.05;1701021;83;21066;-83
2023/01/03 03:16:16;;;;;;;2.55;1.35;;;;;;;6.75;73.13;101432.65;1683769;83;21097;-82
2023/01/03 03:19:00;;;;;;;5.58;1.60;;;;;;;6.69;73.09;101438.47;1700614;83;21779;-82
2023/01/03 03:29:56;;;;;;;3.87;1.47;;;;;;;6.63;72.97;101459.08;1672830;83;21654;-92
2023/01/03 03:32:23;;;;;;;3.45;1.37;;;;;;;6.61;72.99;101464.64;1704943;84;22239;-91
2023/01/03 03:34:54;;;;;;;5.62;1.85;;;;;;;6.60;73.04;101466.76;1704518;84;21074;-91
2023/01/03 03:37:25;;;;;;;3.92;1.32;;;;;;;6.58;73.04;101471.02;1703399;84;21069;-91
2023/01/03 03:46:20;;;;;;;5.60;1.67;;;;;;;6.53;72.86;101476.02;1702782;84;21815;-91
2023/01/03 03:51:43;;;;;;;5.97;1.37;;;;;;;6.46;72.68;101472.58;1673218;83;33552;-90
2023/01/03 03:54:12;;;;;;;4.30;1.40;;;;;;;6.46;72.29;101474.27;1692730;83;21348;-88
2023/01/03 03:56:39;;;;;;;4.87;1.27;;;;;;;6.48;72.12;101472.67;1672741;83;21376;-89
2023/01/03 03:59:08;;;;;;;5.30;1.20;;;;;;;6.47;71.65;101464.31;1697893;83;21697;-90
2023/01/03 04:01:36;;;;;;;6.33;1.50;;;;;;;6.47;71.50;101478.70;1705985;84;21062;-91
2023/01/03 04:04:10;;;;;;;11.33;1.07;;;;;;;6.41;71.37;101477.55;1706293;84;21066;-92
2023/01/03 04:07:01;;;;;;;4.70;1.37;;;;;;;6.39;71.22;101486.14;1683831;84;21206;-91
2023/01/03 04:09:28;;;;;;;3.98;1.20;;;;;;;6.36;71.25;101492.50;1714829;83;21569;-91
2023/01/03 04:12:00;;;;;;;4.83;1.17;;;;;;;6.35;71.18;101483.77;1677667;83;21797;-92
2023/01/03 04:14:34;;;;;;;4.22;1.20;;;;;;;6.33;71.11;101489.74;1712498;83;21444;-91
2023/01/03 04:17:02;;;;;;;4.42;1.25;;;;;;;6.33;71.02;101485.82;1719121;83;21551;-92
2023/01/03 04:19:29;;;;;;;5.00;1.45;;;;;;;6.32;71.06;101486.62;1718888;83;21315;-91
2023/01/03 04:21:55;;;;;;;3.98;1.27;;;;;;;6.30;71.10;101484.34;1714336;83;21068;-83
2023/01/03 04:24:30;;;;;;;6.47;1.57;;;;;;;6.28;71.09;101493.40;1712388;83;21743;-92
2023/01/03 04:26:59;;;;;;;5.55;1.27;;;;;;;6.27;71.09;101485.47;1718319;83;21062;-92
2023/01/03 04:29:26;;;;;;;6.53;1.45;;;;;;;6.27;70.97;101495.54;1711983;83;21113;-83
2023/01/03 04:31:55;;;;;;;2.70;0.95;;;;;;;6.29;70.98;101504.74;1716575;83;21895;-84
2023/01/03 04:34:22;;;;;;;6.37;1.02;;;;;;;6.28;70.86;101506.47;1719853;83;21966;-92
2023/01/03 04:36:49;;;;;;;6.58;1.20;;;;;;;6.27;70.69;101515.15;1699249;83;21827;-93
2023/01/03 04:39:16;;;;;;;4.60;1.42;;;;;;;6.26;70.60;101510.72;1688653;83;22264;-92
2023/01/03 04:44:58;;;;;;;2.70;1.00;;;;;;;6.19;70.60;101518.66;1717837;83;21668;-94
2023/01/03 04:47:38;;;;;;;5.22;1.17;;;;;;;6.21;70.55;101532.70;1712589;83;21072;-92
2023/01/03 04:50:49;;;;;;;6.65;1.57;;;;;;;6.26;70.56;101532.05;1720275;83;21769;-93
2023/01/03 04:53:16;;;;;;;4.72;1.05;;;;;;;6.29;70.60;101497.83;1721106;83;21261;-91
2023/01/03 04:55:48;;;;;;;7.58;1.22;;;;;;;6.40;70.58;101525.84;1715083;83;21025;-92
2023/01/03 04:58:14;;;;;;;2.80;0.98;;;;;;;6.48;70.41;101526.28;1716048;83;21057;-92
2023/01/03 05:00:41;;;;;;;2.75;1.05;;;;;;;6.49;70.28;101526.34;1712954;83;21061;-90
2023/01/03 05:03:14;;;;;;;2.62;0.90;;;;;;;6.43;70.14;101530.83;1716473;83;21792;-93
2023/01/03 05:05:42;;;;;;;3.07;1.10;;;;;;;6.34;70.15;101525.52;1709273;83;21368;-91
2023/01/03 05:08:11;;;;;;;2.80;1.12;;;;;;;6.27;70.16;101516.84;1661385;86;21071;-91
2023/01/03 05:10:38;;;;;;;6.92;1.60;;;;;;;6.19;70.21;101516.04;1644560;85;21059;-90
2023/01/03 05:13:05;;;;;;;3.20;1.30;;;;;;;6.13;70.19;101516.09;1662714;85;21200;-91
2023/01/03 05:15:36;;;;;;;9.03;1.47;;;;;;;6.00;70.25;101506.25;1692585;83;21794;-92
2023/01/03 05:18:03;;;;;;;3.47;1.20;;;;;;;6.02;70.36;101513.80;1676237;85;21066;-93
2023/01/03 05:26:04;;;;;;;10.23;2.35;;;;;;;6.01;70.66;101534.20;1702280;84;21061;-89
2023/01/03 05:28:31;;;;;;;3.70;1.42;;;;;;;6.01;70.49;101535.51;1702631;84;21762;-86
2023/01/03 05:30:58;;;;;;;8.83;1.67;;;;;;;5.99;70.45;101534.52;1703463;84;21030;-90
2023/01/03 05:33:25;;;;;;;6.65;1.30;;;;;;;5.97;70.46;101544.41;1701836;84;21069;-90
2023/01/03 05:35:52;;;;;;;5.28;1.65;;;;;;;5.92;70.40;101536.67;1702614;84;21611;-90
2023/01/03 05:38:20;;;;;;;5.25;1.42;;;;;;;5.89;70.34;101548.25;1703579;84;21057;-88
2023/01/03 05:40:47;;;;;;;7.90;2.08;;;;;;;5.86;70.20;101545.06;1701638;84;21774;-88
2023/01/03 05:43:13;;;;;;;6.85;1.62;;;;;;;5.86;70.23;101558.13;1702363;84;21390;-89
2023/01/03 05:45:41;;;;;;;6.72;1.72;;;;;;;5.82;70.21;101553.14;1704616;84;21027;-90
2023/01/03 05:48:21;;;;;;;7.15;1.75;;;;;;;5.80;70.16;101557.38;1708536;82;21137;-90
2023/01/03 05:50:56;;;;;;;7.55;1.50;;;;;;;5.77;70.25;101557.19;1712179;83;21090;-90
2023/01/03 05:53:23;;;;;;;6.20;1.52;;;;;;;5.76;70.27;101559.70;1703749;82;21794;-90
2023/01/03 05:55:50;;;;;;;5.50;2.10;;;;;;;5.75;70.21;101568.38;1701823;84;21044;-91
2023/01/03 05:58:17;;;;;;;5.78;1.77;;;;;;;5.71;70.19;101567.30;1706616;83;21187;-89
2023/01/03 06:00:46;;;;;;;8.05;2.00;;;;;;;5.68;70.16;101573.64;1706142;83;22172;-90
2023/01/03 06:03:25;;;;;;;4.03;1.37;;;;;;;5.64;70.13;101567.33;1705636;83;21080;-91
2023/01/03 06:05:54;;;;;;;10.18;2.83;;;;;;;5.62;70.19;101582.43;1708716;83;23025;-92
2023/01/03 06:08:20;;;;;;;12.25;2.65;;;;;;;5.60;70.21;101586.67;1702529;84;21049;-91
2023/01/03 06:10:47;;;;;;;4.20;1.90;;;;;;;5.58;70.25;101594.82;1691764;84;21086;-90
2023/01/03 06:13:14;;;;;;;8.10;2.50;;;;;;;5.56;70.27;101599.95;1691690;84;21228;-91
2023/01/03 06:18:38;;;;;;;7.72;2.08;;;;;;;5.59;70.47;101610.59;1681702;84;22350;-92
2023/01/03 06:21:05;;;;;;;8.15;2.00;;;;;;;5.70;70.61;101614.22;1689484;84;21070;-93
2023/01/03 06:23:33;;;;;;;17.07;6.17;;;;;;;5.75;70.57;101617.59;1684678;83;21101;-89
2023/01/03 06:26:03;;;;;;;19.00;7.90;;;;;;;5.81;70.61;101624.48;1680960;84;21244;-91
2023/01/03 06:28:30;;;;;;;5.40;2.47;;;;;;;5.88;70.59;101630.97;1685244;84;21077;-84
2023/01/03 06:30:59;;;;;;;7.55;2.35;;;;;;;5.91;70.50;101632.84;1688431;84;21796;-89
2023/01/03 06:33:26;;;;;;;7.50;2.47;;;;;;;5.91;70.48;101635.46;1682699;84;21552;-89
2023/01/03 06:35:53;;;;;;;8.28;2.22;;;;;;;5.89;70.40;101643.20;1680097;84;21069;-90
2023/01/03 06:38:19;;;;;;;7.95;2.98;;;;;;;5.85;70.37;101642.12;1688149;84;21065;-93
2023/01/03 06:40:52;;;;;;;6.15;1.80;;;;;;;5.82;70.43;101645.00;1680437;83;21080;-84
2023/01/03 06:43:22;;;;;;;10.43;2.10;;;;;;;5.83;70.51;101654.61;1647553;85;22239;-84
2023/01/03 06:54:24;;;;;;;8.40;2.27;;;;;;;5.86;70.64;101669.17;1682018;84;21050;-89
2023/01/03 06:59:17;;;;;;;8.48;2.40;;;;;;;5.96;70.65;101663.70;1755233;80;22647;-90
2023/01/03 07:01:45;;;;;;;10.03;1.82;;;;;;;5.96;70.77;101675.45;1726444;81;21060;-89
2023/01/03 07:04:13;;;;;;;10.90;2.30;;;;;;;6.02;70.84;101684.06;1724586;82;21922;-83
2023/01/03 07:06:42;;;;;;;12.55;4.75;;;;;;;6.09;70.78;101685.34;1722973;83;21613;-85
2023/01/03 07:09:09;;;;;;;8.88;2.42;;;;;;;6.14;70.76;101673.44;1725083;82;21560;-84
2023/01/03 07:11:36;;;;;;;12.28;2.60;;;;;;;6.10;70.32;101670.13;1711277;81;21521;-84
2023/01/03 07:14:05;;;;;;;8.03;2.35;;;;;;;6.03;70.20;101686.77;1725246;82;21064;-85
2023/01/03 07:16:40;;;;;;;8.58;2.45;;;;;;;5.96;70.09;101666.73;1722636;82;21785;-85
2023/01/03 07:19:11;;;;;;;6.97;2.00;;;;;;;5.92;70.07;101672.14;1735170;81;21427;-85
2023/01/03 07:21:38;;;;;;;5.37;2.47;;;;;;;5.89;70.07;101678.48;1709464;81;21701;-90
2023/01/03 07:24:05;;;;;;;9.23;4.28;;;;;;;5.84;70.07;101689.98;1723078;81;21074;-91
2023/01/03 07:26:33;;;;;;;11.25;5.15;;;;;;;5.80;70.10;101689.69;1725471;81;21099;-90
2023/01/03 07:29:03;;;;;;;7.83;2.83;;;;;;;5.77;70.11;101694.76;1729658;81;21741;-91
2023/01/03 07:31:31;;;;;;;9.13;2.90;;;;;;;5.76;70.18;101697.78;1693823;82;21063;-84
2023/01/03 07:34:04;;;;;;;7.80;3.35;;;;;;;5.75;70.21;101701.61;1721701;82;21055;-85
2023/01/03 07:36:32;;;;;;;10.45;3.45;;;;;;;5.74;70.15;101705.02;1724785;82;21683;-84
2023/01/03 07:38:59;;;;;;;8.88;3.12;;;;;;;5.73;70.14;101709.34;1725787;81;21083;-84
2023/01/03 07:43:35;;;;;;;9.70;2.22;;;;;;;5.71;70.18;101707.47;1726586;81;21910;-85
2023/01/03 07:43:56;;;;;;;9.05;4.05;;;;;;;5.69;70.05;101711.66;1719807;82;21071;-84
2023/01/03 07:46:24;;;;;;;7.72;2.70;;;;;;;5.65;69.96;101723.25;1725586;81;21071;-84
2023/01/03 07:48:54;;;;;;;7.28;2.37;;;;;;;5.62;69.76;101721.75;1721215;82;21106;-84
2023/01/03 07:51:21;;;;;;;5.58;2.10;;;;;;;5.61;69.71;101729.48;1672934;83;21077;-90
2023/01/03 07:53:52;;;;;;;6.05;2.02;;;;;;;5.65;69.69;101731.50;1728571;81;21921;-91
2023/01/03 07:56:20;;;;;;;7.42;2.27;;;;;;;5.78;69.78;101727.89;1720075;83;21023;-91
2023/01/03 07:58:47;;;;;;;7.95;2.22;;;;;;;5.92;69.71;101730.05;1723572;81;21087;-85
2023/01/03 08:01:17;;;;;;;8.95;2.58;;;;;;;5.95;69.41;101737.70;1701529;82;21086;-85
2023/01/03 08:03:44;;;;;;;10.35;4.25;;;;;;;6.01;69.42;101733.24;1715296;82;21095;-91
2023/01/03 08:06:16;;;;;;;9.43;2.47;;;;;;;6.08;69.32;101738.03;1718514;82;21820;-91
2023/01/03 08:08:43;;;;;;;9.10;3.80;;;;;;;6.07;69.10;101742.74;1716342;82;21351;-91
2023/01/03 08:13:56;;;;;;;13.45;3.40;;;;;;;6.00;69.04;101745.38;1714041;83;21087;-91
2023/01/03 08:16:23;;;;;;;18.55;6.30;;;;;;;6.03;69.20;101751.22;1717166;83;21064;-91
2023/01/03 08:18:51;;;;;;;8.55;2.67;;;;;;;6.11;69.32;101749.05;1718285;82;21914;-90
2023/01/03 08:21:17;;;;;;;16.10;6.72;;;;;;;6.18;69.40;101765.19;1723200;82;21939;-91
2023/01/03 08:23:47;;;;;;;9.35;2.92;;;;;;;6.23;69.39;101759.83;1717147;83;21500;-91
2023/01/03 08:26:20;;;;;;;20.72;12.28;;;;;;;6.28;69.26;101761.39;1717289;83;21083;-91
2023/01/03 08:28:47;;;;;;;25.23;13.05;;;;;;;6.29;69.33;101765.83;1719483;82;21374;-91
2023/01/03 08:31:20;;;;;;;14.45;5.28;;;;;;;6.39;69.51;101776.41;1683904;83;21739;-91
2023/01/03 08:33:55;;;;;;;14.73;7.17;;;;;;;6.50;69.55;101772.70;1715610;83;21051;-91
2023/01/03 08:36:22;;;;;;;9.38;3.02;;;;;;;6.64;69.56;101783.06;1719150;82;21067;-90
2023/01/03 08:38:56;;;;;;;12.58;5.72;;;;;;;6.77;69.53;101782.53;1733727;82;21071;-91
2023/01/03 08:41:24;;;;;;;22.20;11.33;;;;;;;6.90;69.50;101784.55;1717467;82;21076;-90
2023/01/03 08:43:53;;;;;;;21.97;9.93;;;;;;;6.97;69.44;101788.90;1712705;82;21804;-91
2023/01/03 08:46:20;;;;;;;16.62;6.75;;;;;;;7.06;69.33;101792.45;1720777;82;21072;-91
2023/01/03 08:48:47;;;;;;;9.83;3.75;;;;;;;7.13;69.20;101791.06;1718268;83;21078;-91
2023/01/03 08:51:14;;;;;;;14.07;8.38;;;;;;;7.16;69.02;101802.61;1723496;81;21103;-91
2023/01/03 08:53:41;;;;;;;8.78;4.40;;;;;;;7.18;68.96;101805.31;1716734;82;21632;-91
2023/01/03 08:56:08;;;;;;;13.32;5.78;;;;;;;7.19;68.89;101800.17;1728932;82;21778;-90
2023/01/03 08:58:35;;;;;;;30.48;14.83;;;;;;;7.25;68.82;101803.95;1718893;81;21521;-90
2023/01/03 09:01:05;;;;;;;16.30;9.75;;;;;;;7.27;68.65;101805.83;1715087;83;21063;-90
2023/01/03 09:03:33;;;;;;;10.30;4.83;;;;;;;7.32;68.76;101810.92;1716863;83;21062;-91
2023/01/03 09:06:03;;;;;;;22.77;13.40;;;;;;;7.36;68.66;101815.92;1716357;83;22043;-91
2023/01/03 09:08:31;;;;;;;27.65;16.27;;;;;;;7.42;68.69;101825.84;1716088;83;21636;-85
2023/01/03 09:10:58;;;;;;;66.97;44.23;;;;;;;7.48;68.65;101823.55;1715468;82;21843;-89
2023/01/03 09:13:25;;;;;;;16.93;9.05;;;;;;;7.53;68.61;101819.05;1717194;82;21080;-85
2023/01/03 09:16:02;;;;;;;10.45;4.40;;;;;;;7.59;68.39;101819.79;1717658;82;21052;-92
2023/01/03 09:18:30;;;;;;;7.58;3.30;;;;;;;7.65;68.32;101829.70;1716860;82;21859;-84
2023/01/03 09:20:57;;;;;;;13.62;6.45;;;;;;;7.66;68.01;101824.94;1715970;82;22461;-84
2023/01/03 09:23:25;;;;;;;34.35;19.45;;;;;;;7.67;67.94;101822.82;1715438;83;21067;-84
2023/01/03 09:25:52;;;;;;;56.85;32.10;;;;;;;7.64;67.90;101827.50;1713545;83;21071;-84
2023/01/03 09:28:19;;;;;;;34.55;21.42;;;;;;;7.72;68.03;101822.67;1714341;83;21060;-90
2023/01/03 09:30:45;;;;;;;23.35;13.35;;;;;;;7.84;68.08;101833.79;1715886;82;21102;-90
2023/01/03 09:33:13;;;;;;;79.75;50.23;;;;;;;7.96;68.01;101834.45;1717164;82;21757;-84
2023/01/03 09:35:40;;;;;;;23.80;14.63;;;;;;;8.06;68.00;101837.56;1717271;83;21078;-84
2023/01/03 09:38:07;;;;;;;22.87;12.98;;;;;;;8.10;67.67;101845.66;1716400;83;21580;-83
2023/01/03 09:40:40;;;;;;;29.27;16.60;;;;;;;8.09;67.50;101847.81;1715336;83;21060;-90
2023/01/03 09:43:15;;;;;;;15.58;7.78;;;;;;;8.09;67.44;101840.33;1713599;83;21070;-89
2023/01/03 09:45:44;;;;;;;12.73;3.72;;;;;;;8.08;67.25;101845.10;1719929;82;21745;-90
2023/01/03 09:48:17;;;;;;;9.23;2.98;;;;;;;8.08;66.83;101842.48;1719359;82;21036;-90
2023/01/03 09:50:44;;;;;;;23.70;12.35;;;;;;;8.05;66.60;101841.00;1721216;82;21060;-90
2023/01/03 10:05:31;;;;;;;12.15;3.33;;;;;;;8.21;66.22;101862.39;1717719;83;21035;-91
2023/01/03 10:08:39;;;;;;;13.22;4.67;;;;;;;8.07;66.94;101849.84;1703570;83;21064;-91
2023/01/03 10:11:12;;;;;;;5.78;2.30;;;;;;;8.25;67.24;101866.97;1604706;87;21127;-91
2023/01/03 10:14:18;;;;;;;27.55;16.17;;;;;;;8.27;67.00;101875.81;1686750;83;22693;-89
2023/01/03 10:16:52;;;;;;;13.48;6.15;;;;;;;8.30;67.18;101872.95;1713314;83;21051;-90
2023/01/03 10:19:43;;;;;;;16.77;9.55;;;;;;;8.24;66.97;101877.87;1714735;83;21062;-89
2023/01/03 10:22:17;;;;;;;9.08;3.25;;;;;;;8.22;67.25;101876.90;1711869;83;21127;-90
2023/01/03 10:24:46;;;;;;;;;;;;;;;8.26;67.22;101881.87;1717529;83;21102;-90
2023/01/03 10:27:21;;;;;;;6.70;2.85;;;;;;;8.28;67.24;101878.52;1682654;83;22608;-90
2023/01/03 10:29:49;;;;;;;11.03;3.12;;;;;;;8.26;67.31;101877.55;1713989;83;21483;-90
2023/01/03 10:32:41;;;;;;;14.83;4.72;;;;;;;8.28;67.40;101878.52;1722464;83;21080;-90
2023/01/03 10:35:21;;;;;;;7.92;2.98;;;;;;;8.27;67.38;101883.27;1707145;83;21197;-90
2023/01/03 10:37:51;;;;;;;5.45;2.15;;;;;;;8.25;67.31;101873.11;1717645;83;21159;-91
2023/01/03 10:40:18;;;;;;;8.25;2.95;;;;;;;8.25;67.41;101877.04;1715206;83;21781;-90
2023/01/03 10:42:45;;;;;;;7.40;2.75;;;;;;;8.22;67.21;101872.97;1713987;83;21631;-91
2023/01/03 10:45:17;;;;;;;9.40;2.52;;;;;;;8.18;67.21;101879.77;1712876;83;21059;-91
2023/01/03 10:47:47;;;;;;;13.22;3.90;;;;;;;8.15;67.19;101878.70;1715069;83;21058;-91
2023/01/03 10:50:22;;;;;;;8.10;2.87;;;;;;;8.11;67.14;101878.95;1677506;83;21083;-90
2023/01/03 10:52:58;;;;;;;6.97;2.40;;;;;;;8.12;67.12;101885.08;1715368;83;22451;-90
2023/01/03 10:55:25;;;;;;;7.42;2.45;;;;;;;8.11;67.01;101881.98;1713409;83;21118;-90
2023/01/03 10:57:57;;;;;;;9.55;2.75;;;;;;;8.08;66.88;101877.46;1719806;83;21036;-90
2023/01/03 11:00:36;;;;;;;7.00;2.33;;;;;;;8.08;66.98;101885.75;1708316;83;21132;-91
2023/01/03 11:03:23;;;;;;;14.40;6.83;;;;;;;8.10;66.89;101895.48;1723085;82;21063;-90
2023/01/03 11:06:04;;;;;;;11.73;4.85;;;;;;;8.13;67.00;101893.45;1723259;82;22614;-89
2023/01/03 11:08:46;;;;;;;9.40;4.20;;;;;;;8.14;66.95;101896.55;1720224;82;21135;-91
2023/01/03 11:11:29;;;;;;;9.28;3.77;;;;;;;8.14;66.95;101893.52;1722808;82;22143;-91
2023/01/03 11:14:25;;;;;;;13.88;4.08;;;;;;;8.10;66.76;101889.34;1718309;83;21078;-90
2023/01/03 11:17:04;;;;;;;25.08;13.58;;;;;;;8.02;66.77;101890.67;1725650;82;21071;-89
2023/01/03 11:19:33;;;;;;;24.50;11.65;;;;;;;7.94;66.85;101891.16;1714962;83;21783;-84
2023/01/03 11:22:41;;;;;;;26.60;15.10;;;;;;;7.89;66.83;101889.11;1723443;82;21030;-84
2023/01/03 11:26:00;;;;;;;23.32;14.87;;;;;;;7.84;66.90;101903.67;1718970;82;21095;-84
2023/01/03 11:28:42;;;;;;;13.35;6.58;;;;;;;7.83;66.88;101905.78;1616571;86;21231;-85
2023/01/03 11:31:57;;;;;;;10.98;3.25;;;;;;;7.76;66.91;101909.81;1648587;85;21106;-85
2023/01/03 11:34:43;;;;;;;9.18;2.42;;;;;;;7.73;67.05;101911.86;1639335;86;21151;-86
2023/01/03 11:38:09;;;;;;;11.57;5.50;;;;;;;7.70;67.22;101917.34;1666851;85;21317;-84
2023/01/03 11:41:34;;;;;;;11.43;4.90;;;;;;;7.68;67.32;101919.88;1704690;83;21093;-83
2023/01/03 11:44:44;;;;;;;;;;;;;;;7.63;67.56;101925.67;1719255;82;21074;-84
2023/01/03 11:47:57;;;;;;;11.63;3.62;;;;;;;7.68;67.95;101930.77;1718351;82;20633;-84
2023/01/03 11:50:49;;;;;;;7.07;2.60;;;;;;;7.72;68.01;101927.50;1717403;82;21768;-84
2023/01/03 11:53:35;;;;;;;23.20;11.05;;;;;;;7.64;67.94;101933.62;1734119;82;21336;-84
2023/01/03 11:56:32;;;;;;;19.62;6.83;;;;;;;7.62;68.27;101947.44;1717476;82;21047;-83
2023/01/03 11:59:41;;;;;;;15.32;6.42;;;;;;;7.64;68.53;101949.35;1711619;83;21169;-84
2023/01/03 12:02:51;;;;;;;73.50;35.08;;;;;;;7.67;68.77;101942.95;1584700;88;21127;-84
2023/01/03 12:05:42;;;;;;;54.58;26.82;;;;;;;7.70;69.02;101938.31;1587358;90;21903;-90
2023/01/03 12:08:20;;;;;;;66.87;30.60;;;;;;;7.72;69.19;101932.74;1657342;82;21093;-90
2023/01/03 12:11:02;;;;;;;57.33;25.27;;;;;;;7.76;69.07;101921.61;1721911;82;21091;-91
2023/01/03 12:14:18;;;;;;;22.77;10.88;;;;;;;7.68;68.87;101934.70;1714055;83;22318;-91
2023/01/03 12:16:52;;;;;;;40.08;18.85;;;;;;;7.56;68.74;101936.20;1644797;86;21110;-91
2023/01/03 12:19:36;;;;;;;18.45;7.05;;;;;;;7.45;68.89;101946.11;1607236;87;21748;-90
2023/01/03 12:22:21;;;;;;;;;;;;;;;7.44;68.90;101949.94;1663537;85;21129;-90
2023/01/03 12:25:18;;;;;;;12.40;3.85;;;;;;;7.48;69.11;101944.95;1655135;85;20208;-88
2023/01/03 12:28:27;;;;;;;16.20;6.72;;;;;;;7.55;69.04;101945.80;1646975;85;21473;-84
2023/01/03 12:31:17;;;;;;;30.45;13.15;;;;;;;7.59;68.92;101953.42;1648795;85;21106;-85
2023/01/03 12:34:20;;;;;;;42.78;21.80;;;;;;;7.64;68.99;101941.49;1639295;85;21781;-85
2023/01/03 12:37:02;;;;;;;21.93;8.75;;;;;;;7.68;68.96;101951.32;1659608;85;21120;-84
2023/01/03 12:39:57;;;;;;;17.50;6.83;;;;;;;7.67;68.88;101938.13;1652326;84;21123;-84
2023/01/03 12:42:44;;;;;;;27.13;11.45;;;;;;;7.74;68.94;101956.00;1642778;85;22177;-84
2023/01/03 12:45:50;;;;;;;20.17;8.23;;;;;;;7.82;68.88;101959.05;1655020;85;21109;-83
2023/01/03 12:48:40;;;;;;;17.17;5.80;;;;;;;7.85;68.84;101960.54;1655396;85;22518;-82
2023/01/03 12:51:02;;;;;;;71.80;29.25;;;;;;;7.88;68.65;101954.13;1644809;85;21232;-84
2023/01/03 12:54:10;;;;;;;11.48;4.67;;;;;;;7.85;68.46;101956.19;1703951;83;21673;-83
2023/01/03 12:56:50;;;;;;;36.03;14.68;;;;;;;7.84;68.25;101956.10;1713293;83;21075;-84
2023/01/03 12:59:38;;;;;;;15.15;5.75;;;;;;;7.79;68.26;101958.48;1722097;82;21062;-84
2023/01/03 13:02:36;;;;;;;25.80;11.20;;;;;;;7.74;68.17;101969.11;1718097;82;21869;-84
2023/01/03 13:05:32;;;;;;;15.08;5.37;;;;;;;7.72;68.16;101965.50;1716999;82;21470;-89
2023/01/03 13:08:09;;;;;;;16.65;8.58;;;;;;;7.64;68.03;101967.70;1718383;82;20972;-89
2023/01/03 13:10:37;;;;;;;17.17;5.58;;;;;;;7.56;67.97;101963.34;1689812;83;21715;-91
2023/01/03 13:13:04;;;;;;;14.47;7.50;;;;;;;7.47;67.96;101974.59;1719163;82;21526;-90
2023/01/03 13:15:35;;;;;;;7.00;2.30;;;;;;;7.45;68.14;101972.30;1715799;83;21749;-90